Time;durP1;ratioP1;P1;durP2;ratioP2;P2;SDS_P1;SDS_P2;PMS_P1;PMS_P2;Temp;Humidity;BMP_temperature;BMP_pressure;BME280_temperature;BME280_humidity;BME280_pressure;Samples;Min_cycle;Max_cycle;Signal;HPM_P1;HPM_P2
2022/10/11 00:01:40;;;;;;;;;;;;;;;;;;5026067;28;19931;-57
2022/10/11 00:04:06;;;;;;;;;;;;;;;;;;5027021;28;19921;-57
2022/10/11 00:06:32;;;;;;;;;;;;;;;;;;5035262;28;20635;-56
2022/10/11 00:08:58;;;;;;;;;;;;;;;;;;5036929;28;19920;-57
2022/10/11 00:11:23;;;;;;;;;;;;;;;;;;5036884;28;19966;-57
2022/10/11 00:13:49;;;;;;;;;;;;;;;;;;5039623;28;19924;-56
2022/10/11 00:16:15;;;;;;;;;;;;;;;;;;5036345;28;19986;-56
2022/10/11 00:18:41;;;;;;;;;;;;;;;;;;5035520;28;19928;-57
2022/10/11 00:21:07;;;;;;;;;;;;;;;;;;5034841;28;19956;-57
2022/10/11 00:23:34;;;;;;;;;;;;;;;;;;5034968;28;19925;-57
2022/10/11 00:26:00;;;;;;;;;;;;;;;;;;5039215;28;19931;-56
2022/10/11 00:28:25;;;;;;;;;;;;;;;;;;5035403;28;19921;-57
2022/10/11 00:30:51;;;;;;;;;;;;;;;;;;5036695;28;20287;-56
2022/10/11 00:33:17;;;;;;;;;;;;;;;;;;5026220;28;19921;-56
2022/10/11 00:35:43;;;;;;;;;;;;;;;;;;5033612;28;19932;-57
2022/10/11 00:38:09;;;;;;;;;;;;;;;;;;5032935;28;19925;-56
2022/10/11 00:40:35;;;;;;;;;;;;;;;;;;5046095;28;19950;-57
2022/10/11 00:43:01;;;;;;;;;;;;;;;;;;5045640;28;19925;-57
2022/10/11 00:45:27;;;;;;;;;;;;;;;;;;5045779;28;19928;-57
2022/10/11 00:47:53;;;;;;;;;;;;;;;;;;5045861;28;19925;-57
2022/10/11 00:50:18;;;;;;;;;;;;;;;;;;5041229;28;19925;-56
2022/10/11 00:52:44;;;;;;;;;;;;;;;;;;5033101;28;20600;-56
2022/10/11 00:55:10;;;;;;;;;;;;;;;;;;5036334;28;19979;-57
2022/10/11 00:57:36;;;;;;;;;;;;;;;;;;5025569;28;19921;-56
2022/10/11 01:00:02;;;;;;;;;;;;;;;;;;5025954;28;19983;-56
2022/10/11 01:02:29;;;;;;;;;;;;;;;;;;5025819;28;19927;-57
2022/10/11 01:04:55;;;;;;;;;;;;;;;;;;5025861;28;19994;-57
2022/10/11 01:07:20;;;;;;;;;;;;;;;;;;5025631;28;19929;-57
2022/10/11 01:09:46;;;;;;;;;;;;;;;;;;5026138;28;19986;-56
2022/10/11 01:12:12;;;;;;;;;;;;;;;;;;5025039;28;19921;-56
2022/10/11 01:14:38;;;;;;;;;;;;;;;;;;5026167;28;19954;-57
2022/10/11 01:17:04;;;;;;;;;;;;;;;;;;5024859;28;19982;-57
2022/10/11 01:19:30;;;;;;;;;;;;;;;;;;5025243;28;19925;-57
2022/10/11 01:21:56;;;;;;;;;;;;;;;;;;5029022;28;20319;-57
2022/10/11 01:24:22;;;;;;;;;;;;;;;;;;5029315;28;19921;-56
2022/10/11 01:26:48;;;;;;;;;;;;;;;;;;5038489;28;19925;-57
2022/10/11 01:29:14;;;;;;;;;;;;;;;;;;5039729;28;20501;-56
2022/10/11 01:31:39;;;;;;;;;;;;;;;;;;5029933;28;20058;-57
2022/10/11 01:34:05;;;;;;;;;;;;;;;;;;5031559;28;19921;-56
2022/10/11 01:36:31;;;;;;;;;;;;;;;;;;5037970;28;19935;-56
2022/10/11 01:38:57;;;;;;;;;;;;;;;;;;5034307;28;19920;-56
2022/10/11 01:41:23;;;;;;;;;;;;;;;;;;5045485;28;19925;-57
2022/10/11 01:43:49;;;;;;;;;;;;;;;;;;5049143;28;19932;-56
2022/10/11 01:46:15;;;;;;;;;;;;;;;;;;5034589;28;19929;-57
2022/10/11 01:48:41;;;;;;;;;;;;;;;;;;5029426;28;20583;-56
2022/10/11 01:51:07;;;;;;;;;;;;;;;;;;5035767;28;19921;-56
2022/10/11 01:53:33;;;;;;;;;;;;;;;;;;5048117;28;19958;-57
2022/10/11 01:55:58;;;;;;;;;;;;;;;;;;5049095;28;20380;-56
2022/10/11 01:58:24;;;;;;;;;;;;;;;;;;5049160;28;19932;-56
2022/10/11 02:00:50;;;;;;;;;;;;;;;;;;5048183;28;19924;-57
2022/10/11 02:03:18;;;;;;;1.80;0.30;;;;;;;;;;5048573;28;19921;-57
2022/10/11 02:05:54;;;;;;;1.23;0.55;;;;;;;;;;5048488;28;20135;-57
2022/10/11 02:08:23;;;;;;;0.75;0.40;;;;;;;;;;5047360;28;20488;-56
2022/10/11 02:10:53;;;;;;;1.58;0.30;;;;;;;;;;5048559;28;20049;-57
2022/10/11 02:13:38;;;;;;;1.25;0.40;;;;;;;;;;5048335;28;20098;-56
2022/10/11 02:16:08;;;;;;;1.08;0.30;;;;;;;;;;5047860;28;20056;-57
2022/10/11 02:18:35;;;;;;;0.57;0.40;;;;;;;;;;5048215;28;20156;-55
2022/10/11 02:21:03;;;;;;;2.05;0.50;;;;;;;;;;5048174;28;20079;-57
2022/10/11 02:23:38;;;;;;;1.25;0.45;;;;;;;;;;5047139;28;20049;-56
2022/10/11 02:26:05;;;;;;;0.38;0.20;;;;;;;;;;5048242;28;20044;-57
2022/10/11 02:28:33;;;;;;;0.47;0.30;;;;;;;;;;5047389;28;20045;-57
2022/10/11 02:30:59;;;;;;;0.65;0.22;;;;;;;;;;5048287;28;20051;-57
2022/10/11 02:33:35;;;;;;;2.15;0.60;;;;;;;;;;5047671;28;20088;-56
2022/10/11 02:36:05;;;;;;;1.13;0.52;;;;;;;;;;5047003;28;20148;-56
2022/10/11 02:38:37;;;;;;;1.10;0.38;;;;;;;;;;5047301;28;21133;-57
2022/10/11 02:41:12;;;;;;;1.58;0.28;;;;;;;;;;5046580;28;20500;-57
2022/10/11 02:43:40;;;;;;;1.52;0.50;;;;;;;;;;5046882;28;20049;-56
2022/10/11 02:46:07;;;;;;;0.95;0.50;;;;;;;;;;5044977;28;20037;-57
2022/10/11 02:48:34;;;;;;;1.55;0.30;;;;;;;;;;5042502;28;20040;-57
2022/10/11 02:51:01;;;;;;;0.70;0.40;;;;;;;;;;5042700;28;20409;-57
2022/10/11 02:53:28;;;;;;;1.67;0.60;;;;;;;;;;5035362;28;20536;-56
2022/10/11 02:55:54;;;;;;;0.60;0.30;;;;;;;;;;5031133;28;20045;-57
2022/10/11 02:58:20;;;;;;;1.33;0.47;;;;;;;;;;5046509;28;20049;-56
2022/10/11 03:00:47;;;;;;;0.98;0.35;;;;;;;;;;5047118;28;20559;-56
2022/10/11 03:03:13;;;;;;;1.33;0.63;;;;;;;;;;5037674;28;20049;-57
2022/10/11 03:05:42;;;;;;;1.98;0.50;;;;;;;;;;5026953;28;20436;-56
2022/10/11 03:08:12;;;;;;;0.63;0.32;;;;;;;;;;5027892;28;20075;-57
2022/10/11 03:10:38;;;;;;;0.73;0.30;;;;;;;;;;5026680;28;20492;-57
2022/10/11 03:13:04;;;;;;;1.02;0.20;;;;;;;;;;5027167;28;20037;-57
2022/10/11 03:15:30;;;;;;;1.05;0.47;;;;;;;;;;5026861;28;20061;-56
2022/10/11 03:17:57;;;;;;;1.45;0.40;;;;;;;;;;5026781;28;20423;-57
2022/10/11 03:20:23;;;;;;;3.20;0.70;;;;;;;;;;5027181;28;20049;-57
2022/10/11 03:22:49;;;;;;;1.85;0.40;;;;;;;;;;5026856;28;20495;-57
2022/10/11 03:25:15;;;;;;;0.85;0.30;;;;;;;;;;5026172;28;20041;-57
2022/10/11 03:27:41;;;;;;;1.88;0.50;;;;;;;;;;5026895;28;20091;-57
2022/10/11 03:30:08;;;;;;;1.75;0.55;;;;;;;;;;5027128;28;20050;-57
2022/10/11 03:32:34;;;;;;;1.73;0.40;;;;;;;;;;5025844;28;20455;-57
2022/10/11 03:35:01;;;;;;;1.55;0.40;;;;;;;;;;5029421;28;20041;-57
2022/10/11 03:37:27;;;;;;;1.25;0.40;;;;;;;;;;5035074;28;20103;-57
2022/10/11 03:39:53;;;;;;;0.57;0.52;;;;;;;;;;5046203;28;20052;-57
2022/10/11 03:42:19;;;;;;;0.63;0.50;;;;;;;;;;5039900;28;20045;-56
2022/10/11 03:44:47;;;;;;;0.82;0.50;;;;;;;;;;5040364;28;20728;-56
2022/10/11 03:47:13;;;;;;;0.63;0.30;;;;;;;;;;5040128;28;20053;-56
2022/10/11 03:49:39;;;;;;;0.82;0.38;;;;;;;;;;5039618;28;20102;-56
2022/10/11 03:52:05;;;;;;;0.32;0.10;;;;;;;;;;5032382;28;20053;-56
2022/10/11 03:54:31;;;;;;;0.20;0.20;;;;;;;;;;5025428;28;20046;-57
2022/10/11 03:56:57;;;;;;;0.65;0.25;;;;;;;;;;5029983;28;20105;-56
2022/10/11 03:59:23;;;;;;;0.55;0.25;;;;;;;;;;5046139;28;20175;-57
2022/10/11 04:01:49;;;;;;;1.42;0.60;;;;;;;;;;5045344;28;20049;-56
2022/10/11 04:04:15;;;;;;;1.38;0.47;;;;;;;;;;5045765;28;20059;-57
2022/10/11 04:06:41;;;;;;;0.68;0.40;;;;;;;;;;5034106;28;20050;-57
2022/10/11 04:09:08;;;;;;;0.98;0.60;;;;;;;;;;5035388;28;20052;-56
2022/10/11 04:11:34;;;;;;;0.82;0.40;;;;;;;;;;5037765;28;20125;-57
2022/10/11 04:14:00;;;;;;;3.47;0.85;;;;;;;;;;5035762;28;20185;-57
2022/10/11 04:16:26;;;;;;;0.45;0.20;;;;;;;;;;5025987;28;20052;-56
2022/10/11 04:18:53;;;;;;;0.20;0.20;;;;;;;;;;5026450;28;20069;-56
2022/10/11 04:21:19;;;;;;;1.60;0.75;;;;;;;;;;5029297;28;20049;-56
2022/10/11 04:23:44;;;;;;;2.13;0.65;;;;;;;;;;5041833;28;20060;-56
2022/10/11 04:26:10;;;;;;;0.60;0.20;;;;;;;;;;5029622;28;20648;-57
2022/10/11 04:28:36;;;;;;;0.70;0.30;;;;;;;;;;5043806;28;20049;-56
2022/10/11 04:31:04;;;;;;;0.70;0.38;;;;;;;;;;5045857;28;20163;-57
2022/10/11 04:33:30;;;;;;;1.52;0.52;;;;;;;;;;5038299;28;20107;-56
2022/10/11 04:35:56;;;;;;;1.85;0.50;;;;;;;;;;5043644;28;20080;-56
2022/10/11 04:38:22;;;;;;;0.50;0.40;;;;;;;;;;5033026;28;20059;-56
2022/10/11 04:40:48;;;;;;;1.50;0.50;;;;;;;;;;5037268;28;20550;-56
2022/10/11 04:43:15;;;;;;;1.35;0.43;;;;;;;;;;5044987;28;20080;-57
2022/10/11 04:45:41;;;;;;;1.48;0.40;;;;;;;;;;5043722;28;20111;-56
2022/10/11 04:48:07;;;;;;;0.77;0.43;;;;;;;;;;5040184;28;20064;-56
2022/10/11 04:50:33;;;;;;;1.40;0.43;;;;;;;;;;5035369;28;20183;-56
2022/10/11 04:52:59;;;;;;;1.80;0.20;;;;;;;;;;5032698;28;20053;-56
2022/10/11 04:55:25;;;;;;;0.90;0.38;;;;;;;;;;5036618;28;20049;-56
2022/10/11 04:57:51;;;;;;;2.38;0.68;;;;;;;;;;5033884;28;20041;-56
2022/10/11 05:00:18;;;;;;;0.82;0.57;;;;;;;;;;5033081;28;20112;-57
2022/10/11 05:02:44;;;;;;;1.98;0.68;;;;;;;;;;5037233;28;20439;-56
2022/10/11 05:05:10;;;;;;;3.22;0.50;;;;;;;;;;5037490;28;20053;-56
2022/10/11 05:07:36;;;;;;;2.10;0.50;;;;;;;;;;5039613;28;20083;-57
2022/10/11 05:10:02;;;;;;;2.22;0.52;;;;;;;;;;5044466;28;20520;-57
2022/10/11 05:12:28;;;;;;;0.57;0.40;;;;;;;;;;5039287;28;20059;-56
2022/10/11 05:14:54;;;;;;;0.70;0.60;;;;;;;;;;5039047;28;20057;-56
2022/10/11 05:17:20;;;;;;;0.80;0.35;;;;;;;;;;5038535;28;20117;-57
2022/10/11 05:19:46;;;;;;;0.90;0.40;;;;;;;;;;5046313;28;20045;-56
2022/10/11 05:22:12;;;;;;;1.27;0.30;;;;;;;;;;5041119;28;20080;-56
2022/10/11 05:24:38;;;;;;;0.73;0.32;;;;;;;;;;5040542;28;20053;-56
2022/10/11 05:27:04;;;;;;;0.80;0.30;;;;;;;;;;5039148;28;20084;-56
2022/10/11 05:29:30;;;;;;;1.65;0.30;;;;;;;;;;5039695;28;20077;-57
2022/10/11 05:31:56;;;;;;;0.65;0.20;;;;;;;;;;5042103;28;20500;-57
2022/10/11 05:34:22;;;;;;;0.38;0.32;;;;;;;;;;5041845;28;20041;-57
2022/10/11 05:36:48;;;;;;;1.75;0.40;;;;;;;;;;5040835;28;20072;-57
2022/10/11 05:39:14;;;;;;;0.25;0.10;;;;;;;;;;5038786;28;20045;-57
2022/10/11 05:41:40;;;;;;;1.10;0.35;;;;;;;;;;5037494;28;20128;-56
2022/10/11 05:44:07;;;;;;;0.47;0.38;;;;;;;;;;5040951;28;20156;-56
2022/10/11 05:46:33;;;;;;;0.30;0.20;;;;;;;;;;5037322;28;20148;-56
2022/10/11 05:48:59;;;;;;;0.30;0.30;;;;;;;;;;5035956;28;20124;-56
2022/10/11 05:51:25;;;;;;;0.55;0.28;;;;;;;;;;5040486;28;20049;-56
2022/10/11 05:53:51;;;;;;;0.40;0.20;;;;;;;;;;5035164;28;20091;-57
2022/10/11 05:56:22;;;;;;;0.93;0.32;;;;;;;;;;5037260;28;20057;-56
2022/10/11 05:58:48;;;;;;;0.47;0.20;;;;;;;;;;5040137;28;20094;-56
2022/10/11 06:01:20;;;;;;;0.63;0.32;;;;;;;;;;5036448;28;20451;-57
2022/10/11 06:03:47;;;;;;;1.25;0.60;;;;;;;;;;5040870;28;20084;-56
2022/10/11 06:06:13;;;;;;;0.75;0.25;;;;;;;;;;5043612;28;20056;-57
2022/10/11 06:08:39;;;;;;;1.20;0.30;;;;;;;;;;5041251;28;20037;-56
2022/10/11 06:11:09;;;;;;;0.95;0.30;;;;;;;;;;5039370;28;20136;-56
2022/10/11 06:13:35;;;;;;;1.30;0.50;;;;;;;;;;5037315;28;20045;-56
2022/10/11 06:16:03;;;;;;;1.27;0.35;;;;;;;;;;5037639;28;20053;-56
2022/10/11 06:18:30;;;;;;;0.95;0.50;;;;;;;;;;5040209;28;20038;-57
2022/10/11 06:20:57;;;;;;;0.90;0.40;;;;;;;;;;5037203;28;20045;-56
2022/10/11 06:23:23;;;;;;;1.33;0.50;;;;;;;;;;5037029;28;20081;-56
2022/10/11 06:25:59;;;;;;;1.13;0.40;;;;;;;;;;5038785;28;20041;-57
2022/10/11 06:28:26;;;;;;;0.55;0.30;;;;;;;;;;5042741;28;20052;-57
2022/10/11 06:30:52;;;;;;;2.72;0.43;;;;;;;;;;5040534;28;20420;-56
2022/10/11 06:33:18;;;;;;;0.77;0.47;;;;;;;;;;5038781;28;20410;-57
2022/10/11 06:35:44;;;;;;;0.57;0.30;;;;;;;;;;5038329;28;20049;-56
2022/10/11 06:38:10;;;;;;;1.77;0.25;;;;;;;;;;5042259;28;20045;-56
2022/10/11 06:40:36;;;;;;;0.52;0.30;;;;;;;;;;5034717;28;20106;-57
2022/10/11 06:43:02;;;;;;;0.63;0.38;;;;;;;;;;5036826;28;20048;-57
2022/10/11 06:45:28;;;;;;;0.57;0.20;;;;;;;;;;5038706;28;20048;-56
2022/10/11 06:47:54;;;;;;;4.30;0.70;;;;;;;;;;5038719;28;20053;-56
2022/10/11 06:50:20;;;;;;;1.65;0.63;;;;;;;;;;5034327;28;20049;-56
2022/10/11 06:52:46;;;;;;;2.20;0.90;;;;;;;;;;5036186;28;20073;-57
2022/10/11 06:55:12;;;;;;;2.03;0.65;;;;;;;;;;5037738;28;20126;-57
2022/10/11 06:57:38;;;;;;;1.30;0.57;;;;;;;;;;5039537;28;20128;-57
2022/10/11 07:00:05;;;;;;;3.15;0.82;;;;;;;;;;5038916;28;20102;-57
2022/10/11 07:02:31;;;;;;;1.38;0.60;;;;;;;;;;5037516;28;20053;-57
2022/10/11 07:04:57;;;;;;;1.77;0.70;;;;;;;;;;5041463;28;20103;-57
2022/10/11 07:07:23;;;;;;;5.07;0.73;;;;;;;;;;5040317;28;20128;-57
2022/10/11 07:09:49;;;;;;;1.75;0.70;;;;;;;;;;5036169;28;20041;-57
2022/10/11 07:12:15;;;;;;;1.60;0.65;;;;;;;;;;5038605;28;20051;-57
2022/10/11 07:14:41;;;;;;;0.77;0.60;;;;;;;;;;5037167;28;20049;-56
2022/10/11 07:17:08;;;;;;;2.50;0.85;;;;;;;;;;5040340;28;20499;-57
2022/10/11 07:19:34;;;;;;;0.77;0.50;;;;;;;;;;5035374;28;20049;-56
2022/10/11 07:22:00;;;;;;;2.03;0.73;;;;;;;;;;5038151;28;20053;-57
2022/10/11 07:24:26;;;;;;;1.85;0.93;;;;;;;;;;5033602;28;20051;-57
2022/10/11 07:26:52;;;;;;;2.03;0.85;;;;;;;;;;5035224;28;20090;-56
2022/10/11 07:29:18;;;;;;;1.45;0.35;;;;;;;;;;5037741;28;20045;-57
2022/10/11 07:31:44;;;;;;;2.53;0.50;;;;;;;;;;5034957;28;20052;-56
2022/10/11 07:34:10;;;;;;;2.65;0.80;;;;;;;;;;5037599;28;20074;-57
2022/10/11 07:36:36;;;;;;;0.90;0.40;;;;;;;;;;5040534;28;20129;-57
2022/10/11 07:39:06;;;;;;;0.65;0.47;;;;;;;;;;5034292;28;20045;-56
2022/10/11 07:41:32;;;;;;;1.13;0.60;;;;;;;;;;5036203;28;21075;-57
2022/10/11 07:43:58;;;;;;;0.80;0.38;;;;;;;;;;5036171;28;20049;-56
2022/10/11 07:46:24;;;;;;;1.17;0.20;;;;;;;;;;5037701;28;20041;-57
2022/10/11 07:48:50;;;;;;;0.38;0.13;;;;;;;;;;5040600;28;20072;-57
2022/10/11 07:51:18;;;;;;;0.50;0.30;;;;;;;;;;5035242;28;20045;-54
2022/10/11 07:53:48;;;;;;;0.82;0.10;;;;;;;;;;5033229;28;20056;-55
2022/10/11 07:56:15;;;;;;;1.88;0.60;;;;;;;;;;5035516;28;20132;-59
2022/10/11 07:58:41;;;;;;;1.00;0.40;;;;;;;;;;5030185;28;20092;-56
2022/10/11 08:01:08;;;;;;;1.90;0.40;;;;;;;;;;5025323;28;20073;-52
2022/10/11 08:03:34;;;;;;;1.48;0.40;;;;;;;;;;5024425;28;20057;-58
2022/10/11 08:06:01;;;;;;;1.08;0.30;;;;;;;;;;5025414;28;20568;-57
2022/10/11 08:08:42;;;;;;;2.05;0.45;;;;;;;;;;5001859;28;20053;-57
2022/10/11 08:11:08;;;;;;;1.55;0.50;;;;;;;;;;5046302;28;20067;-57
2022/10/11 08:13:34;;;;;;;1.23;0.73;;;;;;;;;;5044278;28;20095;-57
2022/10/11 08:16:00;;;;;;;1.13;0.70;;;;;;;;;;5045290;28;20512;-57
2022/10/11 08:18:27;;;;;;;0.85;0.70;;;;;;;;;;5029281;28;20037;-57
2022/10/11 08:20:53;;;;;;;1.67;0.57;;;;;;;;;;5026997;28;20050;-57
2022/10/11 08:23:19;;;;;;;1.40;0.65;;;;;;;;;;5029842;28;20045;-56
2022/10/11 08:25:47;;;;;;;7.10;1.13;;;;;;;;;;5042121;28;20041;-57
2022/10/11 08:28:16;;;;;;;2.67;1.05;;;;;;;;;;5044459;28;21253;-56
2022/10/11 08:30:49;;;;;;;3.10;1.35;;;;;;;;;;5039894;28;20045;-57
2022/10/11 08:33:15;;;;;;;4.07;0.95;;;;;;;;;;5043125;28;20036;-57
2022/10/11 08:35:41;;;;;;;1.55;0.82;;;;;;;;;;5043445;28;20103;-57
2022/10/11 08:38:07;;;;;;;3.53;0.90;;;;;;;;;;5042063;28;20128;-57
2022/10/11 08:40:33;;;;;;;4.40;1.63;;;;;;;;;;5038792;28;20140;-57
2022/10/11 08:43:02;;;;;;;5.43;1.40;;;;;;;;;;5044037;28;20041;-57
2022/10/11 08:45:42;;;;;;;5.40;1.70;;;;;;;;;;5043201;28;20056;-57
2022/10/11 08:48:13;;;;;;;4.28;1.20;;;;;;;;;;5040500;28;20045;-57
2022/10/11 08:50:39;;;;;;;5.80;1.30;;;;;;;;;;5044845;28;20471;-57
2022/10/11 08:53:34;;;;;;;6.15;1.95;;;;;;;;;;5044441;28;20041;-57
2022/10/11 08:56:00;;;;;;;6.80;1.83;;;;;;;;;;5030759;28;20053;-57
2022/10/11 08:58:37;;;;;;;3.63;1.25;;;;;;;;;;5043991;28;20083;-57
2022/10/11 09:01:03;;;;;;;2.88;1.23;;;;;;;;;;5044000;28;20053;-57
2022/10/11 09:03:36;;;;;;;5.45;1.40;;;;;;;;;;5042837;28;20518;-57
2022/10/11 09:06:05;;;;;;;4.88;1.55;;;;;;;;;;5041326;28;20375;-57
2022/10/11 09:08:40;;;;;;;3.67;1.25;;;;;;;;;;5043737;28;20436;-57
2022/10/11 09:11:06;;;;;;;3.60;1.13;;;;;;;;;;5036315;28;20045;-59
2022/10/11 09:13:50;;;;;;;3.85;1.20;;;;;;;;;;5033821;28;20051;-58
2022/10/11 09:16:35;;;;;;;3.92;1.42;;;;;;;;;;5034857;28;20095;-57
2022/10/11 09:19:19;;;;;;;5.32;1.75;;;;;;;;;;5044438;28;20743;-57
2022/10/11 09:21:48;;;;;;;3.33;1.55;;;;;;;;;;5043031;28;20093;-57
2022/10/11 09:24:20;;;;;;;2.50;1.23;;;;;;;;;;5043314;28;20040;-58
2022/10/11 09:26:55;;;;;;;3.63;1.42;;;;;;;;;;5045353;28;20099;-57
2022/10/11 09:29:30;;;;;;;5.45;1.23;;;;;;;;;;5043532;28;20389;-58
2022/10/11 09:31:56;;;;;;;4.60;1.40;;;;;;;;;;5040494;28;20083;-57
2022/10/11 09:34:24;;;;;;;2.58;1.20;;;;;;;;;;5044398;28;20113;-57
2022/10/11 09:36:57;;;;;;;2.92;1.20;;;;;;;;;;5044598;28;20401;-57
2022/10/11 09:39:32;;;;;;;7.97;1.58;;;;;;;;;;5044777;28;20514;-56
2022/10/11 09:42:01;;;;;;;3.70;0.90;;;;;;;;;;5044557;28;20041;-56
2022/10/11 09:44:29;;;;;;;7.45;2.58;;;;;;;;;;5033145;28;20601;-57
2022/10/11 09:46:55;;;;;;;7.35;1.88;;;;;;;;;;5041844;28;20337;-57
2022/10/11 09:49:24;;;;;;;4.82;1.50;;;;;;;;;;5042472;28;20361;-57
2022/10/11 09:51:52;;;;;;;5.55;1.40;;;;;;;;;;5047441;28;20105;-57
2022/10/11 09:54:26;;;;;;;3.20;1.42;;;;;;;;;;5042240;28;20072;-57
2022/10/11 09:56:52;;;;;;;4.63;1.20;;;;;;;;;;5047446;28;20067;-57
2022/10/11 09:59:26;;;;;;;5.60;1.60;;;;;;;;;;5047353;28;20503;-57
2022/10/11 10:02:11;;;;;;;8.55;1.55;;;;;;;;;;5047082;28;20060;-57
2022/10/11 10:04:56;;;;;;;3.78;1.00;;;;;;;;;;5044999;28;20053;-57
2022/10/11 10:07:22;;;;;;;1.90;0.63;;;;;;;;;;5047085;28;20076;-57
2022/10/11 10:09:48;;;;;;;3.00;1.30;;;;;;;;;;5047500;28;20079;-57
2022/10/11 10:12:19;;;;;;;2.28;0.90;;;;;;;;;;5046627;28;20048;-57
2022/10/11 10:14:53;;;;;;;2.05;1.13;;;;;;;;;;5044280;28;20056;-57
2022/10/11 10:17:20;;;;;;;6.28;1.60;;;;;;;;;;5044283;28;22025;-57
2022/10/11 10:19:53;;;;;;;3.47;1.30;;;;;;;;;;5044695;28;20120;-57
2022/10/11 10:22:26;;;;;;;5.18;1.60;;;;;;;;;;5034501;28;20041;-57
2022/10/11 10:24:52;;;;;;;9.75;1.88;;;;;;;;;;5040073;28;20037;-57
2022/10/11 10:27:21;;;;;;;5.65;1.90;;;;;;;;;;5036319;28;20037;-57
2022/10/11 10:30:06;;;;;;;2.10;1.20;;;;;;;;;;5043164;28;20055;-57
2022/10/11 10:32:52;;;;;;;2.83;1.00;;;;;;;;;;5041358;28;20049;-57
2022/10/11 10:35:18;;;;;;;3.38;1.17;;;;;;;;;;5044909;28;20052;-58
2022/10/11 10:38:07;;;;;;;4.75;1.35;;;;;;;;;;5046568;28;20037;-57
2022/10/11 10:40:40;;;;;;;2.95;1.00;;;;;;;;;;5039715;28;20672;-57
2022/10/11 10:43:06;;;;;;;3.05;1.10;;;;;;;;;;5043168;28;20135;-57
2022/10/11 10:45:43;;;;;;;5.15;1.58;;;;;;;;;;5046984;28;20714;-58
2022/10/11 10:48:18;;;;;;;2.08;0.63;;;;;;;;;;5046003;28;20044;-57
2022/10/11 10:50:58;;;;;;;2.63;0.90;;;;;;;;;;5046758;28;20052;-57
2022/10/11 10:53:31;;;;;;;3.97;1.20;;;;;;;;;;5045194;28;20044;-57
2022/10/11 10:56:00;;;;;;;2.55;0.75;;;;;;;;;;5036572;28;21454;-57
2022/10/11 10:58:32;;;;;;;0.75;0.43;;;;;;;;;;5040943;28;20033;-59
2022/10/11 11:00:58;;;;;;;;;;;;;;;;;;5042910;28;20068;-58
2022/10/11 11:03:36;;;;;;;4.38;0.75;;;;;;;;;;5046337;28;19921;-59
2022/10/11 11:06:02;;;;;;;2.20;0.47;;;;;;;;;;5045348;28;20045;-59
2022/10/11 11:08:37;;;;;;;1.95;0.50;;;;;;;;;;5046933;28;20044;-59
2022/10/11 11:11:19;;;;;;;0.50;0.38;;;;;;;;;;5043645;28;20523;-58
2022/10/11 11:14:03;;;;;;;1.70;0.70;;;;;;;;;;5046568;28;20044;-58
2022/10/11 11:16:37;;;;;;;1.52;0.57;;;;;;;;;;5044934;28;20415;-58
2022/10/11 11:19:09;;;;;;;1.70;0.65;;;;;;;;;;5042502;28;20037;-58
2022/10/11 11:21:34;;;;;;;1.27;0.40;;;;;;;;;;5038861;28;20522;-58
2022/10/11 11:24:00;;;;;;;2.17;0.47;;;;;;;;;;5043797;28;20049;-58
2022/10/11 11:26:35;;;;;;;0.25;0.20;;;;;;;;;;5038096;28;20549;-58
2022/10/11 11:29:11;;;;;;;2.47;0.60;;;;;;;;;;5044311;28;20045;-58
2022/10/11 11:31:37;;;;;;;1.02;0.40;;;;;;;;;;5044892;28;20102;-58
2022/10/11 11:34:06;;;;;;;0.82;0.38;;;;;;;;;;5045129;28;20510;-58
2022/10/11 11:36:38;;;;;;;1.00;0.52;;;;;;;;;;5044749;28;20053;-58
2022/10/11 11:39:06;;;;;;;0.85;0.40;;;;;;;;;;5044372;28;20507;-58
2022/10/11 11:41:40;;;;;;;0.88;0.40;;;;;;;;;;5045214;28;20041;-58
2022/10/11 11:44:09;;;;;;;0.50;0.30;;;;;;;;;;5045748;28;20110;-58
2022/10/11 11:46:40;;;;;;;0.50;0.15;;;;;;;;;;5046128;28;20462;-57
2022/10/11 11:49:11;;;;;;;0.50;0.40;;;;;;;;;;5046407;28;20045;-58
2022/10/11 11:51:40;;;;;;;0.20;0.20;;;;;;;;;;5045876;28;20120;-58
2022/10/11 11:54:08;;;;;;;0.05;0.00;;;;;;;;;;5046386;28;20041;-58
2022/10/11 11:56:49;;;;;;;0.15;0.10;;;;;;;;;;5044549;28;20110;-58
2022/10/11 11:59:20;;;;;;;0.43;0.20;;;;;;;;;;5044211;28;20114;-58
2022/10/11 12:02:00;;;;;;;1.05;0.28;;;;;;;;;;5044395;28;20061;-58
2022/10/11 12:04:29;;;;;;;1.30;0.38;;;;;;;;;;5045093;28;20064;-58
2022/10/11 12:07:01;;;;;;;1.90;0.40;;;;;;;;;;5044579;28;20626;-58
2022/10/11 12:09:27;;;;;;;;;;;;;;;;;;5042800;28;20045;-58
2022/10/11 12:11:57;;;;;;;1.48;0.63;;;;;;;;;;5045578;28;20327;-58
2022/10/11 12:14:29;;;;;;;1.55;0.50;;;;;;;;;;5044340;28;20667;-58
2022/10/11 12:17:08;;;;;;;2.75;0.70;;;;;;;;;;5045198;28;20051;-58
2022/10/11 12:19:34;;;;;;;0.80;0.38;;;;;;;;;;5041839;28;20049;-58
2022/10/11 12:22:39;;;;;;;2.33;0.45;;;;;;;;;;5045756;28;20567;-58
2022/10/11 12:25:08;;;;;;;1.25;0.70;;;;;;;;;;5022597;28;20041;-58
2022/10/11 12:27:36;;;;;;;3.65;0.82;;;;;;;;;;5021829;28;20085;-58
2022/10/11 12:30:02;;;;;;;2.13;0.70;;;;;;;;;;5031682;28;20471;-57
2022/10/11 12:32:28;;;;;;;1.55;0.43;;;;;;;;;;5044944;28;20387;-58
2022/10/11 12:35:26;;;;;;;1.95;0.68;;;;;;;;;;5045460;28;20045;-58
2022/10/11 12:38:02;;;;;;;0.82;0.20;;;;;;;;;;5013566;28;20642;-58
2022/10/11 12:40:35;;;;;;;2.47;0.25;;;;;;;;;;5045143;28;20080;-59
2022/10/11 12:43:11;;;;;;;0.45;0.20;;;;;;;;;;5044832;28;20056;-59
2022/10/11 12:45:37;;;;;;;3.05;0.70;;;;;;;;;;5045723;28;20041;-58
2022/10/11 12:48:03;;;;;;;2.60;0.40;;;;;;;;;;5044617;28;20052;-58
2022/10/11 12:50:47;;;;;;;3.65;0.50;;;;;;;;;;5045270;28;20049;-58
2022/10/11 12:53:30;;;;;;;1.08;0.55;;;;;;;;;;5045179;28;20049;-59
2022/10/11 12:56:11;;;;;;;1.65;0.82;;;;;;;;;;5027154;28;20049;-58
2022/10/11 12:58:40;;;;;;;2.35;0.80;;;;;;;;;;5045645;28;20044;-58
2022/10/11 13:01:06;;;;;;;2.05;0.65;;;;;;;;;;5045590;28;20053;-58
2022/10/11 13:03:48;;;;;;;0.82;0.40;;;;;;;;;;5044189;28;20103;-58
2022/10/11 13:06:23;;;;;;;1.33;0.60;;;;;;;;;;5045189;28;20476;-58
2022/10/11 13:09:12;;;;;;;4.30;1.05;;;;;;;;;;5043953;28;20044;-58
2022/10/11 13:11:40;;;;;;;2.63;0.93;;;;;;;;;;5025413;28;20611;-58
2022/10/11 13:14:09;;;;;;;3.80;0.98;;;;;;;;;;5045674;28;20141;-58
2022/10/11 13:16:49;;;;;;;2.22;0.60;;;;;;;;;;5044242;28;20574;-59
2022/10/11 13:19:16;;;;;;;4.32;1.10;;;;;;;;;;5044754;28;20045;-59
2022/10/11 13:21:42;;;;;;;5.43;1.13;;;;;;;;;;5045234;28;20382;-59
2022/10/11 13:24:11;;;;;;;0.95;0.50;;;;;;;;;;5045919;28;20045;-59
2022/10/11 13:26:37;;;;;;;3.10;0.70;;;;;;;;;;5049415;28;20508;-59
2022/10/11 13:29:03;;;;;;;1.63;0.50;;;;;;;;;;5049015;28;20049;-59
2022/10/11 13:31:29;;;;;;;1.05;0.45;;;;;;;;;;5048133;28;20097;-59
2022/10/11 13:33:58;;;;;;;0.50;0.30;;;;;;;;;;5049062;28;20052;-59
2022/10/11 13:36:25;;;;;;;0.73;0.30;;;;;;;;;;5048897;28;20659;-59
2022/10/11 13:38:59;;;;;;;0.30;0.10;;;;;;;;;;5048333;28;20089;-59
2022/10/11 13:41:26;;;;;;;0.43;0.20;;;;;;;;;;5048334;28;20045;-59
2022/10/11 13:43:53;;;;;;;1.42;0.50;;;;;;;;;;5048179;28;20063;-59
2022/10/11 13:46:20;;;;;;;1.15;0.50;;;;;;;;;;5048504;28;20045;-59
2022/10/11 13:48:56;;;;;;;0.63;0.35;;;;;;;;;;5048632;28;20049;-59
2022/10/11 13:51:31;;;;;;;0.90;0.40;;;;;;;;;;5048001;28;20098;-59
2022/10/11 13:54:02;;;;;;;0.43;0.30;;;;;;;;;;5047521;28;20045;-59
2022/10/11 13:56:29;;;;;;;0.85;0.43;;;;;;;;;;5046856;28;20049;-59
2022/10/11 13:58:55;;;;;;;2.85;0.70;;;;;;;;;;5046998;28;20106;-59
2022/10/11 14:01:26;;;;;;;1.55;0.47;;;;;;;;;;5047991;28;20091;-59
2022/10/11 14:03:55;;;;;;;1.13;0.40;;;;;;;;;;5048582;28;20631;-59
2022/10/11 14:06:21;;;;;;;1.08;0.50;;;;;;;;;;5047437;28;20052;-59
2022/10/11 14:08:49;;;;;;;1.83;0.43;;;;;;;;;;5048221;28;20670;-59
2022/10/11 14:11:15;;;;;;;1.20;0.45;;;;;;;;;;5048005;28;20137;-59
2022/10/11 14:13:46;;;;;;;1.75;0.50;;;;;;;;;;5047482;28;20471;-59
2022/10/11 14:16:12;;;;;;;0.30;0.20;;;;;;;;;;5048083;28;20045;-59
2022/10/11 14:18:44;;;;;;;2.42;0.75;;;;;;;;;;5048388;28;20098;-59
2022/10/11 14:21:19;;;;;;;1.77;0.75;;;;;;;;;;5048309;28;20048;-59
2022/10/11 14:23:46;;;;;;;2.63;1.00;;;;;;;;;;5047855;28;20486;-59
2022/10/11 14:26:12;;;;;;;3.03;0.60;;;;;;;;;;5046712;28;20033;-59
2022/10/11 14:28:39;;;;;;;1.70;0.35;;;;;;;;;;5048021;28;20131;-59
2022/10/11 14:31:05;;;;;;;2.03;0.40;;;;;;;;;;5047924;28;20048;-59
2022/10/11 14:33:31;;;;;;;2.67;0.57;;;;;;;;;;5046747;28;20057;-59
2022/10/11 14:35:57;;;;;;;1.08;0.35;;;;;;;;;;5046922;28;20053;-59
2022/10/11 14:38:23;;;;;;;1.02;0.50;;;;;;;;;;5046412;28;20074;-59
2022/10/11 14:40:49;;;;;;;3.25;0.85;;;;;;;;;;5046947;28;20415;-59
2022/10/11 14:43:15;;;;;;;1.67;0.52;;;;;;;;;;5047530;28;20116;-59
2022/10/11 14:45:41;;;;;;;1.15;0.20;;;;;;;;;;5047689;28;20051;-59
2022/10/11 14:48:07;;;;;;;1.70;0.38;;;;;;;;;;5046185;28;20396;-59
2022/10/11 14:50:37;;;;;;;0.77;0.20;;;;;;;;;;5047177;28;20182;-59
2022/10/11 14:53:04;;;;;;;1.38;0.28;;;;;;;;;;5047249;28;20052;-59
2022/10/11 14:55:30;;;;;;;0.10;0.10;;;;;;;;;;5046431;28;20048;-57
2022/10/11 14:57:57;;;;;;;0.25;0.20;;;;;;;;;;5047294;28;20075;-57
2022/10/11 15:00:24;;;;;;;0.40;0.22;;;;;;;;;;5047233;28;20056;-57
2022/10/11 15:02:54;;;;;;;0.40;0.28;;;;;;;;;;5046377;28;20143;-57
2022/10/11 15:05:21;;;;;;;0.65;0.20;;;;;;;;;;5046821;28;20056;-56
2022/10/11 15:07:47;;;;;;;0.20;0.10;;;;;;;;;;5040195;28;20064;-57